St. John's, Canada
Current Conditions -  °F | °C
As of 1:00 PM on Monday 26 Jan 2015 (Local Time) from CYYT Reporting Station
Few Clouds Few Clouds  
Wind Chill: 14°   Ceiling: Unl
Heat Index: 28°   Visibility: 15mi
Dew Point: 18°   Wind: 25mph
Humidity: 64%   Direction: 250°WSW
Pressure: 29.79"   Gusts: 41mph
Location:  47.58°N, 52.7°W
Report Text: CYYT 261600Z 25022G36KT 15SM FEW030 M02/M08 A2979 RMK CU2 SLP095
Loading
Personal Weather Stations






























Interactive Weather Map New forecast layout! Learn more

10-Day Weather Forecast

Advertisements
Track Severe Weather on mobile